Time;durP1;ratioP1;P1;durP2;ratioP2;P2;SDS_P1;SDS_P2;PMS_P1;PMS_P2;Temp;Humidity;BMP_temperature;BMP_pressure;BME280_temperature;BME280_humidity;BME280_pressure;Samples;Min_cycle;Max_cycle;Signal;HPM_P1;HPM_P2
2022/04/29 00:03:49;;;;;;;2.40;2.20;;;;;;;8.66;75.32;100312.94;8190806;28;20097;-72
2022/04/29 00:07:50;;;;;;;1.80;1.52;;;;;;;8.60;75.16;100307.63;8193018;28;20062;-72
2022/04/29 00:11:53;;;;;;;2.17;1.60;;;;;;;8.52;75.65;100298.88;8190277;28;20091;-72
2022/04/29 00:15:54;;;;;;;1.80;1.70;;;;;;;8.43;75.62;100309.91;8192580;28;20067;-72
2022/04/29 00:19:56;;;;;;;4.53;1.90;;;;;;;8.39;76.10;100315.88;8194159;28;20737;-72
2022/04/29 00:23:57;;;;;;;2.33;1.38;;;;;;;8.36;76.29;100313.25;8192467;28;20047;-72
2022/04/29 00:27:59;;;;;;;1.67;1.58;;;;;;;8.34;76.23;100314.94;8190554;28;20070;-71
2022/04/29 00:32:00;;;;;;;2.20;1.83;;;;;;;8.21;76.43;100316.34;8203450;28;20042;-71
2022/04/29 00:36:02;;;;;;;3.33;2.03;;;;;;;8.20;76.80;100319.78;8199636;28;20138;-72
2022/04/29 00:40:04;;;;;;;2.05;1.63;;;;;;;8.11;76.92;100314.44;8205884;28;20078;-72
2022/04/29 00:44:08;;;;;;;8.38;3.03;;;;;;;8.07;76.83;100307.44;8200945;28;21246;-72
2022/04/29 00:48:10;;;;;;;2.70;2.10;;;;;;;7.98;77.26;100300.38;8187743;28;20050;-72
2022/04/29 00:52:15;;;;;;;2.45;1.80;;;;;;;7.94;77.33;100302.88;8207966;28;20529;-72
2022/04/29 00:56:20;;;;;;;2.80;1.85;;;;;;;7.89;77.47;100295.00;8193322;28;20043;-72
2022/04/29 01:00:22;;;;;;;3.15;1.73;;;;;;;7.87;77.92;100279.47;8209836;28;20082;-71
2022/04/29 03:26:26;;;;;;;2.27;2.00;;;;;;;6.03;83.26;100238.88;7508447;28;20043;-72
2022/04/29 03:30:27;;;;;;;5.43;2.60;;;;;;;5.99;83.33;100237.94;8204106;28;20081;-72
2022/04/29 03:34:28;;;;;;;2.10;1.90;;;;;;;5.94;83.42;100229.22;8210398;28;20427;-72
2022/04/29 03:38:30;;;;;;;1.93;1.83;;;;;;;5.88;83.72;100239.28;8207467;28;20047;-72
2022/04/29 03:43:19;;;;;;;2.20;1.87;;;;;;;5.87;83.71;100247.84;8187279;28;20415;-71
2022/04/29 03:47:21;;;;;;;3.87;2.03;;;;;;;5.83;83.80;100247.72;8208860;28;20075;-71
2022/04/29 03:51:28;;;;;;;3.00;1.90;;;;;;;5.79;83.91;100253.63;8207452;28;20039;-71
2022/04/29 03:55:32;;;;;;;3.30;2.00;;;;;;;5.78;84.06;100251.88;8202741;28;20868;-71
2022/04/29 03:59:33;;;;;;;2.43;1.93;;;;;;;5.80;84.25;100260.53;8213978;28;20051;-71
2022/04/29 04:03:35;;;;;;;3.50;2.20;;;;;;;5.78;84.06;100264.78;8188547;28;20075;-72
2022/04/29 04:07:36;;;;;;;2.30;2.10;;;;;;;5.71;84.42;100258.56;8207232;28;20039;-72
2022/04/29 04:11:38;;;;;;;2.90;2.25;;;;;;;5.65;84.24;100260.97;8191514;28;20058;-71
2022/04/29 04:15:39;;;;;;;3.43;2.27;;;;;;;5.59;84.72;100258.22;8199690;28;20414;-71
2022/04/29 04:19:41;;;;;;;2.10;1.77;;;;;;;5.60;84.98;100258.25;8209471;28;20058;-72
2022/04/29 04:23:44;;;;;;;3.13;2.03;;;;;;;5.60;84.68;100250.53;8210511;28;20105;-72
2022/04/29 04:27:46;;;;;;;4.60;2.40;;;;;;;5.60;84.71;100253.09;8196113;28;20066;-72
2022/04/29 04:31:47;;;;;;;2.63;2.43;;;;;;;5.64;84.95;100251.50;8190561;28;20348;-72
2022/04/29 04:35:49;;;;;;;2.70;1.90;;;;;;;5.60;85.08;100255.69;8190327;28;20057;-72
2022/04/29 04:39:51;;;;;;;3.53;2.20;;;;;;;5.65;85.22;100261.84;8214705;28;20096;-72
2022/04/29 04:43:53;;;;;;;2.35;2.15;;;;;;;5.73;85.30;100259.47;8204722;28;20077;-72
2022/04/29 04:47:55;;;;;;;2.33;2.13;;;;;;;5.70;85.12;100265.41;8212006;28;20046;-72
2022/04/29 04:51:56;;;;;;;2.30;2.13;;;;;;;5.74;85.20;100268.94;8188618;28;20066;-72
2022/04/29 04:56:03;;;;;;;2.50;2.20;;;;;;;5.75;84.94;100263.88;8197129;28;20046;-72
2022/04/29 05:00:05;;;;;;;3.70;1.92;;;;;;;5.75;85.21;100269.00;8209421;28;20078;-72
2022/04/29 05:04:07;;;;;;;3.97;2.33;;;;;;;5.82;85.54;100264.03;8207233;28;20097;-72
2022/04/29 05:08:09;;;;;;;7.07;2.60;;;;;;;5.90;85.42;100273.75;8210411;28;20420;-72
2022/04/29 05:12:10;;;;;;;3.67;2.27;;;;;;;5.90;85.23;100265.13;8188810;28;20079;-72
2022/04/29 05:16:12;;;;;;;2.77;2.17;;;;;;;5.96;85.51;100261.06;8197478;28;20661;-72
2022/04/29 05:20:16;;;;;;;2.37;2.27;;;;;;;6.01;85.22;100274.94;8191013;28;20932;-72
2022/04/29 05:24:17;;;;;;;5.47;2.80;;;;;;;6.10;85.65;100276.00;8206213;28;20054;-72
2022/04/29 05:28:25;;;;;;;2.70;2.10;;;;;;;6.24;85.42;100279.84;8178297;28;20101;-72
2022/04/29 05:32:29;;;;;;;3.77;2.53;;;;;;;6.38;85.01;100278.50;8209634;28;20359;-72
2022/04/29 05:36:30;;;;;;;5.20;2.17;;;;;;;6.57;84.81;100287.59;8185691;28;20070;-72
2022/04/29 05:44:53;;;;;;;2.57;2.37;;;;;;;6.86;84.10;100276.31;8184727;28;20074;-72
2022/04/29 05:48:54;;;;;;;2.50;2.30;;;;;;;6.99;84.03;100285.22;8204048;28;20105;-72
2022/04/29 05:53:02;;;;;;;2.45;2.25;;;;;;;7.05;83.28;100287.97;8193878;28;20170;-72
2022/04/29 05:57:04;;;;;;;2.97;2.40;;;;;;;7.15;83.33;100287.34;8190136;28;20049;-71
2022/04/29 06:01:05;;;;;;;3.05;2.22;;;;;;;7.32;82.55;100287.72;8191555;28;20054;-72
2022/04/29 06:05:08;;;;;;;3.58;2.10;;;;;;;7.50;82.73;100284.69;8209681;28;20109;-72
2022/04/29 06:09:09;;;;;;;5.47;2.28;;;;;;;7.61;82.14;100280.63;8192847;28;20043;-72
2022/04/29 06:13:11;;;;;;;2.70;1.80;;;;;;;7.66;81.72;100279.03;8207327;28;20046;-72
2022/04/29 06:17:13;;;;;;;8.52;3.67;;;;;;;7.78;81.99;100278.41;8183708;28;20261;-72
2022/04/29 06:21:16;;;;;;;3.45;2.47;;;;;;;7.93;82.08;100277.88;8182767;28;20440;-72
2022/04/29 06:25:20;;;;;;;2.90;2.33;;;;;;;8.09;81.48;100278.22;8188118;28;20051;-72
2022/04/29 06:29:22;;;;;;;2.45;1.98;;;;;;;8.29;81.21;100278.59;8185346;28;20058;-71
2022/04/29 06:33:33;;;;;;;2.15;1.98;;;;;;;8.44;80.59;100273.75;8177183;28;20055;-71
2022/04/29 06:37:35;;;;;;;2.97;2.30;;;;;;;8.62;79.14;100260.25;8153265;28;20043;-71
2022/04/29 06:41:36;;;;;;;4.38;2.42;;;;;;;8.78;78.89;100262.22;8170753;28;20074;-72
2022/04/29 06:45:38;;;;;;;2.47;2.28;;;;;;;8.87;79.58;100271.88;8171521;28;20750;-72
2022/04/29 06:49:40;;;;;;;2.27;2.07;;;;;;;8.98;79.37;100280.72;8170547;28;20047;-71
2022/04/29 06:53:42;;;;;;;2.50;2.30;;;;;;;9.20;80.09;100268.97;8170128;28;20047;-72
2022/04/29 06:57:46;;;;;;;2.95;1.75;;;;;;;9.75;79.74;100266.28;8165339;28;20047;-72
2022/04/29 07:01:48;;;;;;;3.83;1.95;;;;;;;10.44;78.31;100280.97;8170820;28;20047;-72
2022/04/29 07:05:53;;;;;;;8.90;3.08;;;;;;;11.15;74.98;100268.59;8172234;28;20049;-71
2022/04/29 07:09:55;;;;;;;6.25;2.40;;;;;;;11.68;72.19;100269.81;8175980;28;20051;-70
2022/04/29 07:13:59;;;;;;;3.35;2.72;;;;;;;12.23;70.64;100264.84;8177277;28;20521;-71
2022/04/29 07:18:01;;;;;;;6.28;2.92;;;;;;;13.14;67.25;100262.34;8176139;28;20071;-71
2022/04/29 07:22:03;;;;;;;8.90;3.08;;;;;;;14.03;62.03;100267.38;8177009;28;20050;-70
2022/04/29 07:26:05;;;;;;;6.88;3.40;;;;;;;14.65;58.79;100261.81;8176665;28;20057;-70
2022/04/29 07:30:08;;;;;;;5.57;3.20;;;;;;;14.92;56.06;100254.66;8176902;28;20138;-71
2022/04/29 07:34:09;;;;;;;5.00;3.40;;;;;;;15.03;55.19;100258.88;8159439;28;20078;-70
2022/04/29 07:42:31;;;;;;;6.75;3.65;;;;;;;15.12;54.79;100265.81;8159329;28;20075;-71
2022/04/29 07:46:34;;;;;;;6.90;3.87;;;;;;;15.02;55.47;100266.75;8176338;28;20039;-71
2022/04/29 07:50:36;;;;;;;6.65;3.65;;;;;;;14.93;54.94;100282.53;8175955;28;20110;-70
2022/04/29 07:54:37;;;;;;;12.77;4.13;;;;;;;15.09;55.13;100282.41;8171872;28;20053;-71
2022/04/29 07:58:39;;;;;;;7.77;3.57;;;;;;;15.29;54.28;100279.59;8180750;28;20300;-71
2022/04/29 08:02:41;;;;;;;4.13;3.20;;;;;;;15.74;52.13;100273.94;8168080;28;20503;-71
2022/04/29 08:06:43;;;;;;;11.50;3.20;;;;;;;16.00;52.29;100277.13;8178077;28;20134;-71
2022/04/29 08:11:03;;;;;;;5.57;3.00;;;;;;;16.35;50.76;100283.66;8194301;28;20058;-70
2022/04/29 08:15:05;;;;;;;3.40;2.47;;;;;;;16.53;51.35;100267.69;8176276;28;20047;-71
2022/04/29 08:19:10;;;;;;;10.32;3.00;;;;;;;16.68;50.80;100262.22;8180424;28;20117;-71
2022/04/29 08:23:11;;;;;;;6.75;2.85;;;;;;;17.03;50.52;100261.66;8190566;28;20375;-71
2022/04/29 08:27:13;;;;;;;5.18;2.97;;;;;;;17.35;49.50;100260.22;8190374;28;20069;-71
2022/04/29 08:31:21;;;;;;;12.23;3.42;;;;;;;17.32;48.92;100261.16;8196237;28;20051;-71
2022/04/29 08:35:22;;;;;;;11.77;3.95;;;;;;;17.30;48.68;100255.06;8192505;28;20039;-71
2022/04/29 08:39:24;;;;;;;8.90;3.27;;;;;;;17.26;49.18;100255.16;8201904;28;20058;-71
2022/04/29 08:43:26;;;;;;;5.03;2.57;;;;;;;17.22;48.80;100262.19;8201694;28;20075;-71
2022/04/29 08:47:29;;;;;;;;;;;;;;;17.43;48.79;100261.84;8186804;28;20704;-72
2022/04/29 08:51:30;;;;;;;4.35;2.20;;;;;;;17.82;46.80;100254.13;8204600;28;19926;-71
2022/04/29 08:59:58;;;;;;;12.60;4.28;;;;;;;19.04;45.17;100243.47;8190256;28;20140;-71
2022/04/29 09:04:00;;;;;;;9.50;3.65;;;;;;;19.53;43.86;100243.03;8183444;28;20043;-71
2022/04/29 09:08:02;;;;;;;10.90;4.20;;;;;;;19.91;42.94;100241.13;8183641;28;20047;-72
2022/04/29 09:12:15;;;;;;;10.80;3.33;;;;;;;20.28;41.51;100234.75;8190528;28;20051;-71
2022/04/29 09:16:17;;;;;;;22.08;5.68;;;;;;;20.25;40.98;100235.72;8204710;28;20066;-71
2022/04/29 09:20:24;;;;;;;10.48;3.63;;;;;;;20.18;38.54;100227.13;8196048;28;20597;-71
2022/04/29 09:24:25;;;;;;;11.50;3.85;;;;;;;20.28;39.61;100219.78;8205046;28;20142;-71
2022/04/29 09:28:27;;;;;;;6.45;3.63;;;;;;;20.50;38.70;100223.53;8174282;28;20057;-71
2022/04/29 09:32:48;;;;;;;8.85;3.13;;;;;;;20.91;37.49;100218.69;8198844;28;20049;-71
2022/04/29 09:36:50;;;;;;;5.03;2.23;;;;;;;20.85;36.25;100221.53;8191902;28;20089;-71
2022/04/29 09:40:52;;;;;;;;;;;;;;;20.75;35.86;100215.69;8184825;28;20153;-71
2022/04/29 09:44:54;;;;;;;3.88;1.67;;;;;;;20.84;36.34;100211.88;8186933;28;19934;-71
2022/04/29 09:49:00;;;;;;;2.97;2.38;;;;;;;21.31;35.53;100212.91;8174847;28;20047;-71
2022/04/29 09:53:23;;;;;;;2.67;1.65;;;;;;;21.81;34.50;100210.22;8202073;28;20097;-72
2022/04/29 09:57:26;;;;;;;2.55;1.50;;;;;;;22.18;32.59;100195.63;8200918;28;20321;-71
2022/04/29 10:01:29;;;;;;;7.32;1.80;;;;;;;22.59;33.12;100200.13;8197078;28;20078;-71
2022/04/29 10:05:32;;;;;;;2.78;1.55;;;;;;;22.45;30.37;100189.25;8203779;28;20054;-72
2022/04/29 10:09:36;;;;;;;3.47;1.52;;;;;;;22.02;30.21;100184.75;8199202;28;20818;-71
2022/04/29 10:13:40;;;;;;;1.77;1.33;;;;;;;21.60;29.46;100184.59;8204079;28;20058;-71
2022/04/29 10:22:03;;;;;;;1.67;1.17;;;;;;;21.21;31.06;100186.88;8201210;28;20063;-71
2022/04/29 10:26:05;;;;;;;3.65;1.30;;;;;;;21.06;29.48;100173.28;8164276;28;20562;-71
2022/04/29 10:30:08;;;;;;;1.45;1.00;;;;;;;21.01;30.59;100175.22;8177704;28;20505;-71
2022/04/29 10:34:29;;;;;;;6.32;1.02;;;;;;;21.01;30.82;100177.84;8188127;28;20093;-71
2022/04/29 10:38:39;;;;;;;1.35;1.00;;;;;;;21.05;30.53;100190.03;8195225;28;20075;-72
2022/04/29 10:43:04;;;;;;;2.65;1.00;;;;;;;20.92;29.43;100170.22;8199455;28;20051;-71
2022/04/29 10:47:38;;;;;;;4.25;1.13;;;;;;;20.73;29.52;100171.78;8197665;28;20133;-71
2022/04/29 10:51:52;;;;;;;2.28;0.93;;;;;;;20.61;30.32;100157.19;8194539;28;20106;-72
2022/04/29 10:55:53;;;;;;;1.20;0.82;;;;;;;20.71;31.26;100157.78;8190893;28;20583;-72
2022/04/29 10:59:57;;;;;;;2.60;0.85;;;;;;;21.07;31.81;100150.38;8201222;28;20057;-72
2022/04/29 11:04:04;;;;;;;0.93;0.90;;;;;;;21.47;30.67;100144.53;8180095;28;20543;-72
2022/04/29 11:08:09;;;;;;;7.45;0.90;;;;;;;21.78;29.95;100135.47;8198087;28;20384;-72
2022/04/29 11:12:36;;;;;;;1.98;0.70;;;;;;;21.74;29.84;100136.50;8199498;28;20129;-71
2022/04/29 11:17:06;;;;;;;1.08;0.73;;;;;;;21.70;29.72;100139.22;8198018;28;20047;-71
2022/04/29 11:25:29;;;;;;;1.00;1.00;;;;;;;21.35;28.97;100118.53;8178723;28;21294;-72
2022/04/29 11:29:40;;;;;;;1.35;0.90;;;;;;;21.29;29.50;100121.44;8180985;28;20039;-71
2022/04/29 11:33:42;;;;;;;2.47;0.82;;;;;;;21.60;30.61;100119.38;8161004;28;20054;-71
2022/04/29 11:37:47;;;;;;;3.17;1.27;;;;;;;21.65;31.06;100117.41;8169147;28;20122;-71
2022/04/29 11:41:56;;;;;;;3.67;0.90;;;;;;;21.51;29.87;100113.56;8186639;28;20046;-71
2022/04/29 11:46:07;;;;;;;2.55;1.08;;;;;;;21.71;31.25;100109.22;8185807;28;20043;-71
2022/04/29 11:50:08;;;;;;;1.67;0.95;;;;;;;22.04;30.17;100100.91;8186704;28;20057;-71
2022/04/29 11:54:11;;;;;;;4.97;1.08;;;;;;;21.96;29.41;100095.94;8184203;28;20051;-71
2022/04/29 11:58:13;;;;;;;3.40;1.10;;;;;;;21.83;29.74;100094.69;8185738;28;20059;-71
2022/04/29 12:02:20;;;;;;;5.15;1.23;;;;;;;21.64;30.64;100097.19;8185717;28;20698;-70
2022/04/29 12:06:22;;;;;;;1.83;1.15;;;;;;;21.47;31.32;100090.81;8168769;28;20047;-71
2022/04/29 12:10:28;;;;;;;1.00;0.95;;;;;;;21.27;30.91;100094.22;8185768;28;20057;-70
2022/04/29 12:14:29;;;;;;;3.95;1.35;;;;;;;21.15;31.11;100076.97;8183680;28;20049;-71
2022/04/29 12:18:44;;;;;;;7.22;1.35;;;;;;;21.23;32.31;100084.66;8174192;28;20067;-72
2022/04/29 12:22:50;;;;;;;1.15;1.05;;;;;;;21.47;33.02;100083.75;8204355;28;20126;-72
2022/04/29 12:27:05;;;;;;;1.92;1.00;;;;;;;21.86;31.59;100077.84;8197139;28;20051;-71
2022/04/29 12:35:31;;;;;;;3.50;1.20;;;;;;;22.28;31.52;100085.88;8192282;28;20143;-72
2022/04/29 12:39:35;;;;;;;3.40;1.20;;;;;;;22.18;30.45;100080.09;8193598;28;20089;-72
2022/04/29 12:43:41;;;;;;;1.33;1.02;;;;;;;21.96;30.44;100072.13;8194898;28;20110;-71
2022/04/29 12:47:50;;;;;;;2.22;1.02;;;;;;;21.71;30.61;100063.44;8192938;28;20429;-72
2022/04/29 12:51:59;;;;;;;0.93;0.82;;;;;;;21.63;30.78;100069.03;8159210;28;20089;-72
2022/04/29 12:56:07;;;;;;;1.13;0.90;;;;;;;21.48;30.50;100060.81;8184153;28;20061;-72
2022/04/29 13:00:09;;;;;;;3.78;0.70;;;;;;;21.39;31.20;100054.13;8175174;28;20047;-71
2022/04/29 13:04:11;;;;;;;;;;;;;;;21.31;31.70;100057.03;8188310;28;20359;-72
2022/04/29 13:08:13;;;;;;;1.90;0.70;;;;;;;21.16;31.97;100059.34;8197674;28;19957;-71
2022/04/29 13:12:15;;;;;;;3.13;0.80;;;;;;;21.11;31.76;100052.47;8198777;28;20435;-72
2022/04/29 13:16:18;;;;;;;1.55;0.80;;;;;;;21.15;32.50;100047.06;8201337;28;20138;-71
2022/04/29 13:20:20;;;;;;;2.25;0.90;;;;;;;21.10;30.47;100039.34;8196361;28;20043;-71
2022/04/29 13:24:22;;;;;;;3.65;0.90;;;;;;;21.22;31.28;100035.38;8200992;28;20143;-71
2022/04/29 13:28:23;;;;;;;1.67;0.95;;;;;;;21.37;30.88;100025.13;8198825;28;20126;-72
2022/04/29 13:32:25;;;;;;;1.90;0.95;;;;;;;21.57;30.68;100015.56;8202644;28;20051;-72
2022/04/29 13:36:26;;;;;;;2.10;1.00;;;;;;;21.65;32.65;100016.97;8192505;28;20086;-72
2022/04/29 13:40:28;;;;;;;1.75;0.85;;;;;;;21.68;32.15;100014.19;8182964;28;20047;-72
2022/04/29 13:44:29;;;;;;;1.17;0.95;;;;;;;21.69;32.63;100010.63;8181232;28;20039;-71
2022/04/29 13:48:31;;;;;;;2.60;0.80;;;;;;;21.54;31.13;100010.38;8181980;28;20718;-72
2022/04/29 13:56:57;;;;;;;1.35;0.85;;;;;;;21.45;31.66;100005.47;8182494;28;20047;-71
2022/04/29 14:00:59;;;;;;;2.65;0.95;;;;;;;21.57;32.48;99997.91;8183153;28;20043;-72
2022/04/29 14:05:02;;;;;;;1.00;0.90;;;;;;;21.62;30.64;100003.88;8182369;28;20074;-72
2022/04/29 14:09:03;;;;;;;2.80;0.77;;;;;;;21.63;31.12;99997.66;8182180;28;20078;-72
2022/04/29 14:13:08;;;;;;;3.45;0.80;;;;;;;21.54;31.72;99994.50;8166428;28;20047;-72
2022/04/29 14:17:09;;;;;;;1.45;0.90;;;;;;;21.41;32.05;99999.44;8180588;28;20133;-72
2022/04/29 14:21:11;;;;;;;1.92;0.90;;;;;;;21.41;31.40;100004.72;8164559;28;20096;-72
2022/04/29 14:25:13;;;;;;;0.98;0.98;;;;;;;21.30;31.24;99997.22;8177609;28;20066;-71
2022/04/29 14:29:14;;;;;;;0.80;0.80;;;;;;;21.18;31.81;99986.22;8177365;28;20440;-71
2022/04/29 14:33:16;;;;;;;0.93;0.93;;;;;;;21.16;31.74;99994.19;8171204;28;20138;-71
2022/04/29 14:37:17;;;;;;;2.40;1.20;;;;;;;21.19;31.39;100002.03;8172911;28;20071;-71
2022/04/29 14:41:18;;;;;;;1.15;0.88;;;;;;;21.21;32.64;99980.84;8183876;28;20134;-71
2022/04/29 14:45:20;;;;;;;2.60;1.05;;;;;;;21.31;33.07;99987.50;8181622;28;20051;-71
2022/04/29 14:49:26;;;;;;;1.20;1.10;;;;;;;21.29;31.91;99991.97;8181226;28;20059;-71
2022/04/29 14:53:30;;;;;;;8.23;1.20;;;;;;;21.15;31.83;99986.31;8170331;28;20058;-71
2022/04/29 14:57:32;;;;;;;0.93;0.93;;;;;;;20.87;31.38;99986.53;8185113;28;20130;-71
2022/04/29 15:01:34;;;;;;;;;;;;;;;20.72;32.30;99987.94;8204304;28;20130;-71
2022/04/29 15:05:36;;;;;;;0.90;0.77;;;;;;;20.57;32.78;99997.25;8203522;28;20402;-71
2022/04/29 15:18:19;;;;;;;1.20;0.70;;;;;;;20.35;34.31;99978.66;8206244;28;20051;-71
2022/04/29 15:22:22;;;;;;;1.60;0.80;;;;;;;20.30;34.01;99969.19;8212014;28;20046;-71
2022/04/29 15:26:23;;;;;;;3.00;0.88;;;;;;;20.23;34.52;99968.53;8209645;28;20406;-71
2022/04/29 15:30:37;;;;;;;2.58;0.80;;;;;;;20.09;33.37;99966.34;8206106;28;20055;-71
2022/04/29 15:34:40;;;;;;;1.23;0.95;;;;;;;20.00;33.88;99957.91;8207590;28;20051;-71
2022/04/29 15:38:41;;;;;;;1.48;0.95;;;;;;;19.88;35.68;99953.91;8209362;28;20075;-71
2022/04/29 15:42:43;;;;;;;7.03;0.90;;;;;;;19.81;35.46;99950.63;8203114;28;20115;-71
2022/04/29 15:46:44;;;;;;;1.13;0.77;;;;;;;19.70;34.62;99951.88;8188024;28;20071;-71
2022/04/29 15:50:46;;;;;;;1.13;1.00;;;;;;;19.64;34.86;99952.94;8210284;28;20766;-71
2022/04/29 15:54:48;;;;;;;2.85;0.80;;;;;;;19.61;35.33;99947.78;8206604;28;20133;-71
2022/04/29 15:58:50;;;;;;;3.35;0.93;;;;;;;19.56;34.47;99945.28;8189244;28;20077;-71
2022/04/29 16:02:52;;;;;;;2.88;0.90;;;;;;;19.48;34.36;99944.63;8176009;28;20053;-71
2022/04/29 16:06:54;;;;;;;3.47;0.82;;;;;;;19.44;35.99;99947.44;8208786;28;20043;-71
2022/04/29 16:10:56;;;;;;;;;;;;;;;19.39;35.91;99950.22;8208865;28;20051;-71
2022/04/29 16:14:58;;;;;;;2.50;0.70;;;;;;;19.34;36.43;99936.31;8199417;28;19980;-71
2022/04/29 16:27:40;;;;;;;4.05;0.88;;;;;;;19.15;35.78;99930.75;8187130;28;20082;-72
2022/04/29 16:31:41;;;;;;;3.63;0.70;;;;;;;19.12;35.61;99930.84;8190525;28;20422;-71
2022/04/29 16:35:43;;;;;;;2.70;1.02;;;;;;;19.06;35.86;99925.78;8177517;28;21169;-71
2022/04/29 16:39:44;;;;;;;;;;;;;;;18.94;38.91;99923.50;8203618;28;20043;-71
2022/04/29 16:43:48;;;;;;;1.45;0.70;;;;;;;18.82;38.47;99914.19;8181013;28;19954;-71
2022/04/29 16:47:51;;;;;;;2.45;0.90;;;;;;;18.76;39.32;99911.75;8204572;28;20053;-71
2022/04/29 16:51:52;;;;;;;2.88;0.70;;;;;;;18.71;37.84;99906.66;8197023;28;20047;-71
2022/04/29 16:55:54;;;;;;;1.85;0.85;;;;;;;18.62;36.87;99906.88;8199022;28;20831;-71
2022/04/29 16:59:55;;;;;;;1.27;0.75;;;;;;;18.60;37.67;99899.94;8195461;28;20051;-71
2022/04/29 17:03:59;;;;;;;0.85;0.82;;;;;;;18.58;38.03;99904.38;8188377;28;20053;-70
2022/04/29 17:08:00;;;;;;;0.70;0.60;;;;;;;18.56;37.90;99900.94;8187449;28;20058;-71
2022/04/29 17:12:02;;;;;;;1.55;0.90;;;;;;;18.51;39.77;99905.47;8188661;28;20052;-71
2022/04/29 17:16:04;;;;;;;6.63;0.80;;;;;;;18.43;38.87;99905.66;8178108;28;20051;-71
2022/04/29 17:20:06;;;;;;;4.13;0.90;;;;;;;18.39;38.89;99904.91;8178653;28;20101;-71
2022/04/29 17:24:07;;;;;;;1.17;1.08;;;;;;;18.34;39.04;99901.53;8190271;28;20138;-71
2022/04/29 17:28:10;;;;;;;1.75;0.90;;;;;;;18.34;38.88;99903.31;8191069;28;20749;-71
2022/04/29 17:32:11;;;;;;;0.65;0.65;;;;;;;18.34;38.30;99908.56;8194789;28;20129;-71
2022/04/29 17:36:13;;;;;;;1.00;0.90;;;;;;;18.31;39.06;99904.25;8189470;28;20054;-71
2022/04/29 17:44:36;;;;;;;5.32;0.80;;;;;;;18.27;39.58;99914.88;8192134;28;20503;-70
2022/04/29 17:48:55;;;;;;;4.55;1.00;;;;;;;18.24;39.84;99905.31;8201659;28;20039;-70
2022/04/29 17:52:58;;;;;;;4.05;1.00;;;;;;;18.18;42.71;99905.50;8197357;28;20093;-70
2022/04/29 17:57:00;;;;;;;2.78;1.02;;;;;;;18.07;44.50;99912.78;8192223;28;20057;-70
2022/04/29 18:01:01;;;;;;;1.03;1.00;;;;;;;18.03;41.61;99909.41;8186494;28;20476;-70
2022/04/29 18:05:03;;;;;;;3.95;1.25;;;;;;;18.03;39.82;99906.75;8191625;28;20082;-70
2022/04/29 18:09:05;;;;;;;;;;;;;;;18.00;40.96;99906.00;8158027;28;20075;-71
2022/04/29 18:13:08;;;;;;;2.78;1.17;;;;;;;17.94;42.19;99917.50;8187726;28;19933;-70
2022/04/29 18:17:10;;;;;;;2.55;1.20;;;;;;;17.77;43.60;99917.97;8176418;28;20039;-70
2022/04/29 18:21:11;;;;;;;2.63;1.10;;;;;;;17.56;44.53;99920.19;8201019;28;20058;-70
2022/04/29 18:25:13;;;;;;;2.35;1.10;;;;;;;17.31;48.01;99923.41;8190423;28;20091;-71
2022/04/29 18:29:14;;;;;;;2.10;0.90;;;;;;;17.02;48.96;99918.81;8167414;28;20127;-70
2022/04/29 18:33:16;;;;;;;2.03;1.10;;;;;;;16.85;50.60;99921.81;8184112;28;20043;-71
2022/04/29 18:37:17;;;;;;;3.35;1.17;;;;;;;16.73;48.38;99922.09;8197494;28;20043;-70
2022/04/29 18:41:19;;;;;;;1.57;1.20;;;;;;;16.62;48.73;99919.66;8197788;28;20085;-71
2022/04/29 18:45:20;;;;;;;1.92;0.90;;;;;;;16.43;49.83;99923.53;8199030;28;20066;-70
2022/04/29 18:49:23;;;;;;;2.60;1.03;;;;;;;16.25;50.97;99926.50;8170265;28;20066;-70
2022/04/29 18:53:25;;;;;;;1.63;1.23;;;;;;;16.05;52.05;99924.25;8184600;28;20521;-71
2022/04/29 18:57:26;;;;;;;1.47;0.87;;;;;;;15.89;52.50;99928.91;8194142;28;20042;-70
2022/04/29 19:01:28;;;;;;;5.43;1.08;;;;;;;15.69;53.02;99928.38;8198215;28;20137;-70
2022/04/29 19:05:30;;;;;;;1.90;1.10;;;;;;;15.49;53.79;99926.06;8176493;28;20047;-70
2022/04/29 19:09:33;;;;;;;3.20;1.00;;;;;;;15.32;53.66;99926.31;8194937;28;21015;-70
2022/04/29 19:13:34;;;;;;;4.20;1.00;;;;;;;15.22;54.88;99934.31;8195367;28;20120;-70
2022/04/29 19:17:36;;;;;;;2.73;1.27;;;;;;;15.14;55.30;99937.03;8186840;28;20074;-70
2022/04/29 19:21:38;;;;;;;;;;;;;;;15.03;55.93;99931.09;8199869;28;20043;-70
2022/04/29 19:25:39;;;;;;;1.17;0.98;;;;;;;14.93;57.01;99938.22;8180083;28;19930;-70
2022/04/29 19:29:41;;;;;;;0.77;0.77;;;;;;;14.86;57.79;99940.91;8190269;28;20055;-70
2022/04/29 19:33:43;;;;;;;4.57;1.40;;;;;;;14.76;57.71;99938.44;8179488;28;20074;-70
2022/04/29 19:37:45;;;;;;;4.85;1.08;;;;;;;14.69;59.10;99941.97;8193557;28;20035;-70
2022/04/29 19:41:46;;;;;;;2.10;1.17;;;;;;;14.63;60.04;99938.59;8195744;28;20078;-70
2022/04/29 19:45:48;;;;;;;1.60;1.10;;;;;;;14.65;60.59;99934.22;8194698;28;20050;-70
2022/04/29 19:49:49;;;;;;;1.77;1.60;;;;;;;14.55;59.30;99932.59;8199019;28;20045;-70
2022/04/29 19:53:51;;;;;;;1.80;1.50;;;;;;;14.46;61.04;99944.00;8177540;28;20047;-71
2022/04/29 20:06:53;;;;;;;2.42;1.10;;;;;;;14.24;61.10;99942.50;8188325;28;20515;-70
2022/04/29 20:10:55;;;;;;;3.83;1.15;;;;;;;14.18;61.75;99946.00;8198009;28;20051;-71
2022/04/29 20:14:56;;;;;;;3.15;1.38;;;;;;;14.14;62.43;99949.53;8187617;28;20118;-71
2022/04/29 20:19:00;;;;;;;2.05;1.30;;;;;;;14.25;58.06;99954.66;8183220;28;20126;-71
2022/04/29 20:23:02;;;;;;;3.63;1.83;;;;;;;14.42;58.56;99961.44;8184450;28;20082;-70
2022/04/29 20:27:04;;;;;;;3.70;2.03;;;;;;;14.48;58.66;99964.00;8182536;28;20472;-70
2022/04/29 20:31:06;;;;;;;2.45;2.13;;;;;;;14.57;57.92;99970.91;8162751;28;21748;-70
2022/04/29 20:35:08;;;;;;;2.95;1.80;;;;;;;14.62;58.39;99974.31;8182212;28;20424;-70
2022/04/29 20:47:49;;;;;;;9.15;3.30;;;;;;;14.63;58.71;99988.25;8180988;28;20051;-71
2022/04/29 20:51:51;;;;;;;6.15;3.00;;;;;;;14.65;59.00;99996.94;8183498;28;20130;-71
2022/04/29 20:55:52;;;;;;;7.13;4.10;;;;;;;14.61;59.46;99996.13;8167083;28;20051;-71
2022/04/29 20:59:53;;;;;;;4.93;3.93;;;;;;;14.61;59.57;100003.09;8157220;28;20043;-71
2022/04/29 21:03:55;;;;;;;7.80;5.00;;;;;;;14.55;59.63;100006.66;8183625;28;20047;-71
2022/04/29 21:08:00;;;;;;;7.93;4.93;;;;;;;14.51;60.44;100000.56;8182317;28;20133;-71
2022/04/29 21:12:03;;;;;;;10.18;5.10;;;;;;;14.39;61.02;100007.66;8164011;28;20086;-71
2022/04/29 21:16:05;;;;;;;7.57;5.20;;;;;;;14.30;61.36;100013.81;8182199;28;20050;-70
2022/04/29 21:20:11;;;;;;;12.77;6.00;;;;;;;14.20;61.33;100017.41;8165924;28;20097;-70
2022/04/29 21:24:13;;;;;;;14.20;6.70;;;;;;;14.18;61.04;100006.97;8185388;28;20101;-70
2022/04/29 21:28:16;;;;;;;9.02;5.63;;;;;;;14.15;60.77;100012.19;8200072;28;20079;-70
2022/04/29 21:32:18;;;;;;;11.07;7.25;;;;;;;14.09;60.80;100016.63;8198344;28;20057;-70
2022/04/29 21:36:20;;;;;;;11.20;5.90;;;;;;;14.04;60.90;100010.59;8198597;28;20058;-71
2022/04/29 21:40:21;;;;;;;10.82;5.30;;;;;;;13.96;61.17;100009.75;8204295;28;20074;-70
2022/04/29 21:44:23;;;;;;;11.97;6.07;;;;;;;13.94;60.17;100006.31;8199327;28;20550;-71
2022/04/29 21:48:24;;;;;;;11.50;7.60;;;;;;;13.88;61.27;100010.69;8200348;28;20301;-70
2022/04/29 21:52:26;;;;;;;12.33;6.43;;;;;;;13.79;61.51;100010.75;8199883;28;20054;-70
2022/04/29 21:56:27;;;;;;;10.67;6.27;;;;;;;13.70;60.83;100015.19;8190836;28;20098;-71
2022/04/29 22:00:40;;;;;;;10.63;5.72;;;;;;;13.69;61.00;100016.94;8190211;28;20407;-70
2022/04/29 22:04:42;;;;;;;8.38;5.20;;;;;;;13.64;60.70;100020.44;8168322;28;20043;-70
2022/04/29 22:08:44;;;;;;;10.13;5.75;;;;;;;13.59;60.41;100018.72;8159120;28;20039;-70
2022/04/29 22:12:45;;;;;;;10.73;6.28;;;;;;;13.56;60.71;100017.88;8185928;28;20067;-70
2022/04/29 22:16:47;;;;;;;8.68;5.63;;;;;;;13.53;61.45;100017.91;8185709;28;20050;-70
2022/04/29 22:20:50;;;;;;;9.10;5.35;;;;;;;13.44;61.85;100020.56;8186543;28;20047;-71
2022/04/29 22:24:52;;;;;;;8.18;5.60;;;;;;;13.40;61.64;100022.34;8193011;28;20097;-70
2022/04/29 22:28:53;;;;;;;11.80;5.75;;;;;;;13.36;61.39;100025.84;8184870;28;20049;-70
2022/04/29 22:32:55;;;;;;;10.23;5.07;;;;;;;13.34;61.59;100025.00;8189322;28;20090;-70
2022/04/29 22:36:56;;;;;;;8.60;5.25;;;;;;;13.26;62.69;100031.97;8183020;28;20078;-71